sensor_id;sensor_type;location;lat;lon;timestamp;P1;durP1;ratioP1;P2;durP2;ratioP2
44169;SDS011;29836;52.286;9.576;2024-03-23T00:52:10;28.55;;;6.95;;
44169;SDS011;29836;52.286;9.576;2024-03-23T00:54:36;16.50;;;6.60;;
44169;SDS011;29836;52.286;9.576;2024-03-23T00:57:02;24.90;;;6.85;;
44169;SDS011;29836;52.286;9.576;2024-03-23T00:59:27;19.15;;;5.80;;
44169;SDS011;29836;52.286;9.576;2024-03-23T01:01:53;15.63;;;6.40;;
44169;SDS011;29836;52.286;9.576;2024-03-23T01:04:20;18.88;;;5.80;;
44169;SDS011;29836;52.286;9.576;2024-03-23T01:06:45;17.08;;;5.45;;
44169;SDS011;29836;52.286;9.576;2024-03-23T01:09:11;20.90;;;5.78;;
44169;SDS011;29836;52.286;9.576;2024-03-23T01:11:36;26.17;;;5.55;;
44169;SDS011;29836;52.286;9.576;2024-03-23T01:14:02;17.50;;;5.13;;
44169;SDS011;29836;52.286;9.576;2024-03-23T01:16:28;20.00;;;5.63;;
44169;SDS011;29836;52.286;9.576;2024-03-23T01:18:53;13.10;;;5.03;;
44169;SDS011;29836;52.286;9.576;2024-03-23T01:21:19;21.58;;;5.80;;
44169;SDS011;29836;52.286;9.576;2024-03-23T01:23:44;18.05;;;4.90;;
44169;SDS011;29836;52.286;9.576;2024-03-23T01:26:10;12.07;;;4.05;;
44169;SDS011;29836;52.286;9.576;2024-03-23T01:28:35;19.75;;;5.05;;
44169;SDS011;29836;52.286;9.576;2024-03-23T01:31:01;18.77;;;6.07;;
44169;SDS011;29836;52.286;9.576;2024-03-23T01:33:27;13.35;;;4.88;;
44169;SDS011;29836;52.286;9.576;2024-03-23T01:35:52;22.90;;;5.93;;
44169;SDS011;29836;52.286;9.576;2024-03-23T01:38:18;17.33;;;5.38;;
44169;SDS011;29836;52.286;9.576;2024-03-23T01:40:43;19.58;;;6.03;;
44169;SDS011;29836;52.286;9.576;2024-03-23T01:43:09;15.00;;;4.93;;
44169;SDS011;29836;52.286;9.576;2024-03-23T01:45:34;17.98;;;6.15;;
44169;SDS011;29836;52.286;9.576;2024-03-23T01:48:00;20.58;;;5.63;;
44169;SDS011;29836;52.286;9.576;2024-03-23T01:50:27;15.30;;;5.60;;
44169;SDS011;29836;52.286;9.576;2024-03-23T01:52:53;20.52;;;5.85;;
44169;SDS011;29836;52.286;9.576;2024-03-23T01:55:19;20.55;;;5.90;;
44169;SDS011;29836;52.286;9.576;2024-03-23T01:57:45;18.27;;;6.15;;
44169;SDS011;29836;52.286;9.576;2024-03-23T02:00:11;24.02;;;5.65;;
44169;SDS011;29836;52.286;9.576;2024-03-23T02:02:43;15.20;;;5.38;;
44169;SDS011;29836;52.286;9.576;2024-03-23T02:05:10;16.00;;;5.18;;
44169;SDS011;29836;52.286;9.576;2024-03-23T02:07:42;17.83;;;5.35;;
44169;SDS011;29836;52.286;9.576;2024-03-23T02:10:10;20.33;;;5.93;;
44169;SDS011;29836;52.286;9.576;2024-03-23T02:12:38;21.38;;;6.03;;
44169;SDS011;29836;52.286;9.576;2024-03-23T02:15:04;24.02;;;5.57;;
44169;SDS011;29836;52.286;9.576;2024-03-23T02:17:30;15.52;;;4.40;;
44169;SDS011;29836;52.286;9.576;2024-03-23T02:19:59;17.10;;;5.22;;
44169;SDS011;29836;52.286;9.576;2024-03-23T02:22:25;18.15;;;5.78;;
44169;SDS011;29836;52.286;9.576;2024-03-23T02:24:50;22.52;;;5.35;;
44169;SDS011;29836;52.286;9.576;2024-03-23T02:27:16;18.38;;;5.70;;
44169;SDS011;29836;52.286;9.576;2024-03-23T02:29:41;18.83;;;5.90;;
44169;SDS011;29836;52.286;9.576;2024-03-23T02:32:07;15.70;;;5.22;;
44169;SDS011;29836;52.286;9.576;2024-03-23T02:34:34;13.88;;;4.43;;
44169;SDS011;29836;52.286;9.576;2024-03-23T02:37:00;18.52;;;5.13;;
44169;SDS011;29836;52.286;9.576;2024-03-23T02:39:25;17.38;;;4.90;;
44169;SDS011;29836;52.286;9.576;2024-03-23T02:41:51;12.05;;;4.53;;
44169;SDS011;29836;52.286;9.576;2024-03-23T02:44:16;13.18;;;4.18;;
44169;SDS011;29836;52.286;9.576;2024-03-23T02:46:42;19.55;;;4.60;;
44169;SDS011;29836;52.286;9.576;2024-03-23T02:49:07;15.60;;;4.70;;
44169;SDS011;29836;52.286;9.576;2024-03-23T02:51:33;20.85;;;5.80;;
44169;SDS011;29836;52.286;9.576;2024-03-23T02:53:58;17.83;;;5.10;;
44169;SDS011;29836;52.286;9.576;2024-03-23T02:56:24;13.95;;;4.18;;
44169;SDS011;29836;52.286;9.576;2024-03-23T02:58:49;16.73;;;5.18;;
44169;SDS011;29836;52.286;9.576;2024-03-23T03:01:15;16.65;;;5.50;;
44169;SDS011;29836;52.286;9.576;2024-03-23T03:03:40;18.50;;;4.47;;
44169;SDS011;29836;52.286;9.576;2024-03-23T03:06:06;20.17;;;4.60;;
44169;SDS011;29836;52.286;9.576;2024-03-23T03:08:31;18.70;;;5.03;;
44169;SDS011;29836;52.286;9.576;2024-03-23T03:10:57;18.55;;;5.07;;
44169;SDS011;29836;52.286;9.576;2024-03-23T03:13:22;15.95;;;5.40;;
44169;SDS011;29836;52.286;9.576;2024-03-23T03:15:48;19.45;;;5.15;;
44169;SDS011;29836;52.286;9.576;2024-03-23T03:18:13;14.57;;;4.65;;
44169;SDS011;29836;52.286;9.576;2024-03-23T03:20:39;27.13;;;5.22;;
44169;SDS011;29836;52.286;9.576;2024-03-23T03:23:05;22.23;;;5.50;;
44169;SDS011;29836;52.286;9.576;2024-03-23T03:25:31;12.43;;;4.63;;
44169;SDS011;29836;52.286;9.576;2024-03-23T03:27:57;18.88;;;4.97;;
44169;SDS011;29836;52.286;9.576;2024-03-23T03:30:22;14.65;;;5.38;;
44169;SDS011;29836;52.286;9.576;2024-03-23T03:32:49;12.52;;;4.57;;
44169;SDS011;29836;52.286;9.576;2024-03-23T03:35:15;16.05;;;4.63;;
44169;SDS011;29836;52.286;9.576;2024-03-23T03:37:40;14.13;;;4.93;;
44169;SDS011;29836;52.286;9.576;2024-03-23T03:40:06;12.38;;;4.35;;
44169;SDS011;29836;52.286;9.576;2024-03-23T03:42:33;18.90;;;5.18;;
44169;SDS011;29836;52.286;9.576;2024-03-23T03:44:59;13.30;;;4.82;;
44169;SDS011;29836;52.286;9.576;2024-03-23T03:47:25;15.88;;;4.90;;
44169;SDS011;29836;52.286;9.576;2024-03-23T03:49:50;18.42;;;5.32;;
44169;SDS011;29836;52.286;9.576;2024-03-23T03:52:16;17.42;;;4.40;;
44169;SDS011;29836;52.286;9.576;2024-03-23T03:54:41;16.55;;;4.63;;
44169;SDS011;29836;52.286;9.576;2024-03-23T03:57:07;17.45;;;6.03;;
44169;SDS011;29836;52.286;9.576;2024-03-23T03:59:32;13.35;;;4.88;;
44169;SDS011;29836;52.286;9.576;2024-03-23T04:01:58;15.27;;;4.90;;
44169;SDS011;29836;52.286;9.576;2024-03-23T04:04:23;10.48;;;3.95;;
44169;SDS011;29836;52.286;9.576;2024-03-23T04:06:49;11.82;;;4.03;;
44169;SDS011;29836;52.286;9.576;2024-03-23T04:09:14;12.68;;;4.20;;
44169;SDS011;29836;52.286;9.576;2024-03-23T04:11:40;17.13;;;4.82;;
44169;SDS011;29836;52.286;9.576;2024-03-23T04:14:05;15.65;;;4.45;;
44169;SDS011;29836;52.286;9.576;2024-03-23T04:16:34;14.48;;;4.25;;
44169;SDS011;29836;52.286;9.576;2024-03-23T04:19:00;16.77;;;4.57;;
44169;SDS011;29836;52.286;9.576;2024-03-23T04:21:26;14.25;;;4.05;;
44169;SDS011;29836;52.286;9.576;2024-03-23T04:23:51;12.20;;;4.82;;
44169;SDS011;29836;52.286;9.576;2024-03-23T04:26:17;16.90;;;4.75;;
44169;SDS011;29836;52.286;9.576;2024-03-23T04:28:42;15.32;;;5.25;;
44169;SDS011;29836;52.286;9.576;2024-03-23T04:31:08;19.45;;;5.22;;
44169;SDS011;29836;52.286;9.576;2024-03-23T04:33:34;16.52;;;4.60;;
44169;SDS011;29836;52.286;9.576;2024-03-23T04:36:00;28.77;;;5.95;;
44169;SDS011;29836;52.286;9.576;2024-03-23T04:38:25;20.15;;;5.50;;
44169;SDS011;29836;52.286;9.576;2024-03-23T04:41:00;18.70;;;4.60;;
44169;SDS011;29836;52.286;9.576;2024-03-23T04:43:26;24.23;;;4.35;;
44169;SDS011;29836;52.286;9.576;2024-03-23T04:45:52;14.27;;;4.20;;
44169;SDS011;29836;52.286;9.576;2024-03-23T04:48:21;17.88;;;3.95;;
44169;SDS011;29836;52.286;9.576;2024-03-23T04:50:47;15.18;;;3.90;;
44169;SDS011;29836;52.286;9.576;2024-03-23T04:53:13;18.40;;;4.47;;
44169;SDS011;29836;52.286;9.576;2024-03-23T04:55:39;23.85;;;5.50;;
44169;SDS011;29836;52.286;9.576;2024-03-23T04:58:05;23.23;;;4.20;;
44169;SDS011;29836;52.286;9.576;2024-03-23T05:00:30;13.00;;;4.05;;
44169;SDS011;29836;52.286;9.576;2024-03-23T05:02:56;13.30;;;3.97;;
44169;SDS011;29836;52.286;9.576;2024-03-23T05:05:21;23.15;;;4.60;;
44169;SDS011;29836;52.286;9.576;2024-03-23T05:07:47;15.98;;;4.28;;
44169;SDS011;29836;52.286;9.576;2024-03-23T05:10:12;15.48;;;3.33;;
44169;SDS011;29836;52.286;9.576;2024-03-23T05:12:38;19.58;;;4.53;;
44169;SDS011;29836;52.286;9.576;2024-03-23T05:15:04;19.73;;;4.32;;
44169;SDS011;29836;52.286;9.576;2024-03-23T05:17:31;73.63;;;32.15;;
44169;SDS011;29836;52.286;9.576;2024-03-23T05:19:57;17.83;;;4.78;;
44169;SDS011;29836;52.286;9.576;2024-03-23T05:22:23;22.55;;;3.72;;
44169;SDS011;29836;52.286;9.576;2024-03-23T05:24:49;21.05;;;3.20;;
44169;SDS011;29836;52.286;9.576;2024-03-23T05:27:14;16.63;;;2.70;;
44169;SDS011;29836;52.286;9.576;2024-03-23T05:29:40;14.95;;;2.88;;
44169;SDS011;29836;52.286;9.576;2024-03-23T05:32:05;12.32;;;2.92;;
44169;SDS011;29836;52.286;9.576;2024-03-23T05:34:31;15.48;;;2.97;;
44169;SDS011;29836;52.286;9.576;2024-03-23T05:36:57;11.75;;;3.10;;
44169;SDS011;29836;52.286;9.576;2024-03-23T05:39:23;8.43;;;3.15;;
44169;SDS011;29836;52.286;9.576;2024-03-23T05:41:49;16.40;;;3.97;;
44169;SDS011;29836;52.286;9.576;2024-03-23T05:44:14;18.52;;;3.85;;
44169;SDS011;29836;52.286;9.576;2024-03-23T05:46:40;15.95;;;4.43;;
44169;SDS011;29836;52.286;9.576;2024-03-23T05:49:06;25.10;;;4.18;;
44169;SDS011;29836;52.286;9.576;2024-03-23T05:51:32;10.52;;;2.97;;
44169;SDS011;29836;52.286;9.576;2024-03-23T05:53:58;13.30;;;3.78;;
44169;SDS011;29836;52.286;9.576;2024-03-23T05:56:23;20.58;;;6.00;;
44169;SDS011;29836;52.286;9.576;2024-03-23T05:58:51;29.75;;;7.35;;
44169;SDS011;29836;52.286;9.576;2024-03-23T06:01:16;23.02;;;5.97;;
44169;SDS011;29836;52.286;9.576;2024-03-23T06:03:42;16.63;;;4.53;;
44169;SDS011;29836;52.286;9.576;2024-03-23T06:06:08;22.58;;;5.22;;
44169;SDS011;29836;52.286;9.576;2024-03-23T06:08:36;13.60;;;3.67;;
44169;SDS011;29836;52.286;9.576;2024-03-23T06:11:02;17.02;;;3.65;;
44169;SDS011;29836;52.286;9.576;2024-03-23T06:13:28;12.40;;;2.70;;
44169;SDS011;29836;52.286;9.576;2024-03-23T06:15:55;15.52;;;3.22;;
44169;SDS011;29836;52.286;9.576;2024-03-23T06:18:21;9.45;;;3.40;;
44169;SDS011;29836;52.286;9.576;2024-03-23T06:20:46;12.07;;;3.17;;
44169;SDS011;29836;52.286;9.576;2024-03-23T06:23:12;9.10;;;2.90;;
44169;SDS011;29836;52.286;9.576;2024-03-23T06:25:38;13.32;;;2.95;;
44169;SDS011;29836;52.286;9.576;2024-03-23T06:28:04;16.58;;;3.38;;
44169;SDS011;29836;52.286;9.576;2024-03-23T06:30:29;12.15;;;3.10;;
44169;SDS011;29836;52.286;9.576;2024-03-23T06:32:56;15.95;;;4.20;;
44169;SDS011;29836;52.286;9.576;2024-03-23T06:35:22;16.85;;;4.18;;
44169;SDS011;29836;52.286;9.576;2024-03-23T06:37:48;13.43;;;3.45;;
44169;SDS011;29836;52.286;9.576;2024-03-23T06:40:14;19.75;;;3.90;;
44169;SDS011;29836;52.286;9.576;2024-03-23T06:42:39;18.92;;;4.35;;
44169;SDS011;29836;52.286;9.576;2024-03-23T06:45:05;15.10;;;3.78;;
44169;SDS011;29836;52.286;9.576;2024-03-23T06:47:32;16.52;;;4.07;;
44169;SDS011;29836;52.286;9.576;2024-03-23T06:49:59;17.88;;;4.40;;
44169;SDS011;29836;52.286;9.576;2024-03-23T06:52:27;14.63;;;4.47;;
44169;SDS011;29836;52.286;9.576;2024-03-23T06:54:53;15.25;;;4.80;;
44169;SDS011;29836;52.286;9.576;2024-03-23T06:57:18;17.27;;;5.47;;
44169;SDS011;29836;52.286;9.576;2024-03-23T06:59:44;19.10;;;6.03;;
44169;SDS011;29836;52.286;9.576;2024-03-23T07:02:09;21.75;;;6.15;;
44169;SDS011;29836;52.286;9.576;2024-03-23T07:04:35;24.90;;;6.63;;
44169;SDS011;29836;52.286;9.576;2024-03-23T07:07:02;22.15;;;6.00;;
44169;SDS011;29836;52.286;9.576;2024-03-23T07:09:28;18.73;;;5.70;;
44169;SDS011;29836;52.286;9.576;2024-03-23T07:11:57;20.95;;;6.20;;
44169;SDS011;29836;52.286;9.576;2024-03-23T07:14:23;24.02;;;6.72;;
44169;SDS011;29836;52.286;9.576;2024-03-23T07:16:49;19.85;;;6.90;;
44169;SDS011;29836;52.286;9.576;2024-03-23T07:19:15;21.77;;;6.50;;
44169;SDS011;29836;52.286;9.576;2024-03-23T07:21:42;24.50;;;6.85;;
44169;SDS011;29836;52.286;9.576;2024-03-23T07:24:08;29.50;;;6.70;;
44169;SDS011;29836;52.286;9.576;2024-03-23T07:26:34;20.23;;;6.07;;
44169;SDS011;29836;52.286;9.576;2024-03-23T07:28:59;24.05;;;7.03;;
44169;SDS011;29836;52.286;9.576;2024-03-23T07:31:25;26.67;;;6.95;;
44169;SDS011;29836;52.286;9.576;2024-03-23T07:33:50;21.85;;;6.88;;
44169;SDS011;29836;52.286;9.576;2024-03-23T07:36:16;20.98;;;6.50;;
44169;SDS011;29836;52.286;9.576;2024-03-23T07:38:42;24.52;;;7.43;;
44169;SDS011;29836;52.286;9.576;2024-03-23T07:41:10;20.42;;;7.00;;
44169;SDS011;29836;52.286;9.576;2024-03-23T07:43:37;22.90;;;6.60;;
44169;SDS011;29836;52.286;9.576;2024-03-23T07:46:03;25.30;;;8.00;;
44169;SDS011;29836;52.286;9.576;2024-03-23T07:48:30;28.70;;;7.78;;
44169;SDS011;29836;52.286;9.576;2024-03-23T07:50:57;19.30;;;6.95;;
44169;SDS011;29836;52.286;9.576;2024-03-23T07:53:23;28.63;;;7.05;;
44169;SDS011;29836;52.286;9.576;2024-03-23T07:55:53;20.85;;;7.60;;
44169;SDS011;29836;52.286;9.576;2024-03-23T07:58:23;28.55;;;6.65;;
44169;SDS011;29836;52.286;9.576;2024-03-23T08:00:48;20.13;;;6.55;;
44169;SDS011;29836;52.286;9.576;2024-03-23T08:03:14;20.85;;;6.10;;
44169;SDS011;29836;52.286;9.576;2024-03-23T08:05:40;26.35;;;6.13;;
44169;SDS011;29836;52.286;9.576;2024-03-23T08:08:05;22.52;;;6.45;;
44169;SDS011;29836;52.286;9.576;2024-03-23T08:10:31;19.88;;;5.35;;
44169;SDS011;29836;52.286;9.576;2024-03-23T08:12:57;19.05;;;5.88;;
44169;SDS011;29836;52.286;9.576;2024-03-23T08:15:22;16.30;;;5.55;;
44169;SDS011;29836;52.286;9.576;2024-03-23T08:17:49;20.42;;;5.35;;
44169;SDS011;29836;52.286;9.576;2024-03-23T08:20:15;22.40;;;5.57;;
44169;SDS011;29836;52.286;9.576;2024-03-23T08:22:40;12.77;;;5.15;;
44169;SDS011;29836;52.286;9.576;2024-03-23T08:25:06;13.02;;;4.63;;
44169;SDS011;29836;52.286;9.576;2024-03-23T08:27:31;15.38;;;4.60;;
44169;SDS011;29836;52.286;9.576;2024-03-23T08:29:58;19.42;;;4.85;;
44169;SDS011;29836;52.286;9.576;2024-03-23T08:32:23;19.77;;;4.40;;
44169;SDS011;29836;52.286;9.576;2024-03-23T08:34:49;15.35;;;4.47;;
44169;SDS011;29836;52.286;9.576;2024-03-23T08:37:14;19.70;;;4.38;;
44169;SDS011;29836;52.286;9.576;2024-03-23T08:39:40;15.77;;;4.00;;
44169;SDS011;29836;52.286;9.576;2024-03-23T08:42:08;12.52;;;3.88;;
44169;SDS011;29836;52.286;9.576;2024-03-23T08:44:34;13.35;;;4.05;;
44169;SDS011;29836;52.286;9.576;2024-03-23T08:47:00;19.85;;;4.38;;
44169;SDS011;29836;52.286;9.576;2024-03-23T08:49:26;13.57;;;4.00;;
44169;SDS011;29836;52.286;9.576;2024-03-23T08:51:52;13.40;;;4.22;;
44169;SDS011;29836;52.286;9.576;2024-03-23T08:54:17;15.27;;;4.10;;
44169;SDS011;29836;52.286;9.576;2024-03-23T08:56:46;15.02;;;4.13;;
44169;SDS011;29836;52.286;9.576;2024-03-23T08:59:14;11.60;;;3.60;;
44169;SDS011;29836;52.286;9.576;2024-03-23T09:01:40;10.57;;;3.53;;
44169;SDS011;29836;52.286;9.576;2024-03-23T09:04:05;13.00;;;3.90;;
44169;SDS011;29836;52.286;9.576;2024-03-23T09:06:31;12.63;;;3.90;;
44169;SDS011;29836;52.286;9.576;2024-03-23T09:08:57;14.70;;;3.40;;
44169;SDS011;29836;52.286;9.576;2024-03-23T09:11:22;13.50;;;3.63;;
44169;SDS011;29836;52.286;9.576;2024-03-23T09:13:48;10.57;;;3.40;;
44169;SDS011;29836;52.286;9.576;2024-03-23T09:16:14;8.68;;;3.33;;
44169;SDS011;29836;52.286;9.576;2024-03-23T09:18:40;10.25;;;2.95;;
44169;SDS011;29836;52.286;9.576;2024-03-23T09:21:11;18.58;;;3.95;;
44169;SDS011;29836;52.286;9.576;2024-03-23T09:23:43;14.15;;;3.97;;
44169;SDS011;29836;52.286;9.576;2024-03-23T09:26:10;12.18;;;3.85;;
44169;SDS011;29836;52.286;9.576;2024-03-23T09:28:36;9.68;;;3.10;;
44169;SDS011;29836;52.286;9.576;2024-03-23T09:31:02;13.38;;;2.78;;
44169;SDS011;29836;52.286;9.576;2024-03-23T09:33:32;8.90;;;2.80;;
44169;SDS011;29836;52.286;9.576;2024-03-23T09:36:02;12.25;;;2.78;;
44169;SDS011;29836;52.286;9.576;2024-03-23T09:38:29;9.75;;;2.30;;
44169;SDS011;29836;52.286;9.576;2024-03-23T09:40:55;11.48;;;3.10;;
44169;SDS011;29836;52.286;9.576;2024-03-23T09:43:22;8.80;;;2.65;;
44169;SDS011;29836;52.286;9.576;2024-03-23T09:45:48;10.60;;;3.03;;
44169;SDS011;29836;52.286;9.576;2024-03-23T09:48:14;7.38;;;2.70;;
44169;SDS011;29836;52.286;9.576;2024-03-23T09:50:41;9.35;;;2.60;;
44169;SDS011;29836;52.286;9.576;2024-03-23T09:53:08;11.27;;;3.03;;
44169;SDS011;29836;52.286;9.576;2024-03-23T09:55:35;11.80;;;3.08;;
44169;SDS011;29836;52.286;9.576;2024-03-23T09:58:01;11.30;;;2.97;;
44169;SDS011;29836;52.286;9.576;2024-03-23T10:00:27;7.72;;;2.85;;
44169;SDS011;29836;52.286;9.576;2024-03-23T10:02:55;11.05;;;2.65;;
44169;SDS011;29836;52.286;9.576;2024-03-23T10:05:23;8.25;;;2.30;;
44169;SDS011;29836;52.286;9.576;2024-03-23T10:07:49;11.38;;;2.55;;
44169;SDS011;29836;52.286;9.576;2024-03-23T10:10:15;8.02;;;2.53;;
44169;SDS011;29836;52.286;9.576;2024-03-23T10:12:45;6.75;;;2.47;;
44169;SDS011;29836;52.286;9.576;2024-03-23T10:15:17;8.73;;;2.53;;
44169;SDS011;29836;52.286;9.576;2024-03-23T10:17:45;7.72;;;2.03;;
44169;SDS011;29836;52.286;9.576;2024-03-23T10:20:10;6.45;;;2.00;;
44169;SDS011;29836;52.286;9.576;2024-03-23T10:22:37;8.35;;;2.60;;
44169;SDS011;29836;52.286;9.576;2024-03-23T10:25:09;7.07;;;2.20;;
44169;SDS011;29836;52.286;9.576;2024-03-23T10:27:35;8.80;;;2.40;;
44169;SDS011;29836;52.286;9.576;2024-03-23T10:30:11;8.70;;;2.30;;
44169;SDS011;29836;52.286;9.576;2024-03-23T10:32:39;8.05;;;2.10;;
44169;SDS011;29836;52.286;9.576;2024-03-23T10:35:18;4.63;;;2.00;;
44169;SDS011;29836;52.286;9.576;2024-03-23T10:37:48;5.15;;;2.33;;
44169;SDS011;29836;52.286;9.576;2024-03-23T10:40:17;8.50;;;2.20;;
44169;SDS011;29836;52.286;9.576;2024-03-23T10:42:43;9.23;;;2.75;;
44169;SDS011;29836;52.286;9.576;2024-03-23T10:45:09;7.15;;;2.42;;
44169;SDS011;29836;52.286;9.576;2024-03-23T10:47:36;7.43;;;2.10;;
44169;SDS011;29836;52.286;9.576;2024-03-23T10:50:05;8.48;;;2.33;;
44169;SDS011;29836;52.286;9.576;2024-03-23T10:52:33;6.78;;;2.40;;
44169;SDS011;29836;52.286;9.576;2024-03-23T10:55:00;3.50;;;1.33;;
44169;SDS011;29836;52.286;9.576;2024-03-23T10:57:50;4.70;;;1.70;;
44169;SDS011;29836;52.286;9.576;2024-03-23T11:00:19;6.45;;;1.90;;
44169;SDS011;29836;52.286;9.576;2024-03-23T11:02:47;4.68;;;1.70;;
44169;SDS011;29836;52.286;9.576;2024-03-23T11:07:51;5.72;;;1.80;;
44169;SDS011;29836;52.286;9.576;2024-03-23T11:10:35;7.07;;;1.80;;
44169;SDS011;29836;52.286;9.576;2024-03-23T11:15:48;7.53;;;2.20;;
44169;SDS011;29836;52.286;9.576;2024-03-23T11:18:19;6.57;;;2.17;;
44169;SDS011;29836;52.286;9.576;2024-03-23T11:20:46;11.43;;;2.67;;
44169;SDS011;29836;52.286;9.576;2024-03-23T11:23:26;6.45;;;2.17;;
44169;SDS011;29836;52.286;9.576;2024-03-23T11:25:53;6.45;;;2.20;;
44169;SDS011;29836;52.286;9.576;2024-03-23T11:28:18;5.82;;;2.40;;
44169;SDS011;29836;52.286;9.576;2024-03-23T11:30:44;6.82;;;2.50;;
44169;SDS011;29836;52.286;9.576;2024-03-23T11:33:09;7.72;;;2.50;;
44169;SDS011;29836;52.286;9.576;2024-03-23T11:35:37;5.28;;;2.50;;
44169;SDS011;29836;52.286;9.576;2024-03-23T11:38:07;9.27;;;2.65;;
44169;SDS011;29836;52.286;9.576;2024-03-23T11:40:37;10.70;;;3.28;;
44169;SDS011;29836;52.286;9.576;2024-03-23T11:43:05;10.15;;;2.88;;
44169;SDS011;29836;52.286;9.576;2024-03-23T11:45:35;6.25;;;2.60;;
44169;SDS011;29836;52.286;9.576;2024-03-23T11:48:03;10.85;;;2.72;;
44169;SDS011;29836;52.286;9.576;2024-03-23T11:50:29;5.60;;;2.03;;
44169;SDS011;29836;52.286;9.576;2024-03-23T11:53:08;4.30;;;2.05;;
44169;SDS011;29836;52.286;9.576;2024-03-23T11:55:48;4.97;;;2.40;;
44169;SDS011;29836;52.286;9.576;2024-03-23T11:58:24;5.20;;;1.65;;
44169;SDS011;29836;52.286;9.576;2024-03-23T12:03:17;8.02;;;1.30;;
44169;SDS011;29836;52.286;9.576;2024-03-23T12:05:49;4.75;;;1.83;;
44169;SDS011;29836;52.286;9.576;2024-03-23T12:13:42;7.13;;;2.08;;
44169;SDS011;29836;52.286;9.576;2024-03-23T12:18:37;4.82;;;1.50;;
44169;SDS011;29836;52.286;9.576;2024-03-23T12:21:03;6.18;;;1.95;;
44169;SDS011;29836;52.286;9.576;2024-03-23T12:23:29;3.58;;;1.70;;
44169;SDS011;29836;52.286;9.576;2024-03-23T12:25:54;6.72;;;1.88;;
44169;SDS011;29836;52.286;9.576;2024-03-23T12:28:20;5.35;;;1.85;;
44169;SDS011;29836;52.286;9.576;2024-03-23T12:30:45;3.75;;;1.60;;
44169;SDS011;29836;52.286;9.576;2024-03-23T12:33:11;5.20;;;1.98;;
44169;SDS011;29836;52.286;9.576;2024-03-23T12:35:37;5.95;;;1.95;;
44169;SDS011;29836;52.286;9.576;2024-03-23T12:38:02;3.97;;;1.52;;
44169;SDS011;29836;52.286;9.576;2024-03-23T12:40:28;3.03;;;1.60;;
44169;SDS011;29836;52.286;9.576;2024-03-23T12:42:54;3.65;;;0.98;;
44169;SDS011;29836;52.286;9.576;2024-03-23T12:45:20;3.45;;;1.40;;
44169;SDS011;29836;52.286;9.576;2024-03-23T12:47:46;3.65;;;1.35;;
44169;SDS011;29836;52.286;9.576;2024-03-23T12:50:12;3.35;;;1.60;;
44169;SDS011;29836;52.286;9.576;2024-03-23T12:52:37;2.90;;;1.27;;
44169;SDS011;29836;52.286;9.576;2024-03-23T12:55:03;4.60;;;1.50;;
44169;SDS011;29836;52.286;9.576;2024-03-23T12:57:32;5.47;;;1.48;;
44169;SDS011;29836;52.286;9.576;2024-03-23T12:59:58;4.78;;;1.63;;
44169;SDS011;29836;52.286;9.576;2024-03-23T13:02:24;3.90;;;1.20;;
44169;SDS011;29836;52.286;9.576;2024-03-23T13:04:50;1.95;;;1.10;;
44169;SDS011;29836;52.286;9.576;2024-03-23T13:07:19;4.78;;;1.67;;
44169;SDS011;29836;52.286;9.576;2024-03-23T13:09:46;4.32;;;1.27;;
44169;SDS011;29836;52.286;9.576;2024-03-23T13:12:12;4.38;;;1.52;;
44169;SDS011;29836;52.286;9.576;2024-03-23T13:14:40;4.05;;;1.70;;
44169;SDS011;29836;52.286;9.576;2024-03-23T13:17:07;4.07;;;1.35;;
44169;SDS011;29836;52.286;9.576;2024-03-23T13:19:33;2.72;;;1.38;;
44169;SDS011;29836;52.286;9.576;2024-03-23T13:21:58;4.05;;;1.17;;
44169;SDS011;29836;52.286;9.576;2024-03-23T13:24:25;2.50;;;1.20;;
44169;SDS011;29836;52.286;9.576;2024-03-23T13:26:51;3.67;;;1.20;;
44169;SDS011;29836;52.286;9.576;2024-03-23T13:29:20;3.00;;;1.38;;
44169;SDS011;29836;52.286;9.576;2024-03-23T13:31:47;6.53;;;1.67;;
44169;SDS011;29836;52.286;9.576;2024-03-23T13:34:13;6.22;;;1.33;;
44169;SDS011;29836;52.286;9.576;2024-03-23T13:36:42;4.93;;;1.70;;
44169;SDS011;29836;52.286;9.576;2024-03-23T13:39:12;5.18;;;1.52;;
44169;SDS011;29836;52.286;9.576;2024-03-23T13:41:38;4.20;;;1.38;;
44169;SDS011;29836;52.286;9.576;2024-03-23T13:44:08;3.85;;;1.33;;
44169;SDS011;29836;52.286;9.576;2024-03-23T13:46:38;7.97;;;1.92;;
44169;SDS011;29836;52.286;9.576;2024-03-23T13:49:04;5.65;;;1.58;;
44169;SDS011;29836;52.286;9.576;2024-03-23T13:51:31;3.42;;;1.35;;
44169;SDS011;29836;52.286;9.576;2024-03-23T13:53:57;7.50;;;2.03;;
44169;SDS011;29836;52.286;9.576;2024-03-23T13:56:25;3.38;;;1.50;;
44169;SDS011;29836;52.286;9.576;2024-03-23T13:58:53;3.78;;;1.55;;
44169;SDS011;29836;52.286;9.576;2024-03-23T14:01:19;5.55;;;1.92;;
44169;SDS011;29836;52.286;9.576;2024-03-23T14:03:44;8.95;;;1.90;;
44169;SDS011;29836;52.286;9.576;2024-03-23T14:06:10;4.18;;;1.30;;
44169;SDS011;29836;52.286;9.576;2024-03-23T14:08:36;8.93;;;1.65;;
44169;SDS011;29836;52.286;9.576;2024-03-23T14:11:04;6.63;;;1.90;;
44169;SDS011;29836;52.286;9.576;2024-03-23T14:13:31;5.78;;;1.45;;
44169;SDS011;29836;52.286;9.576;2024-03-23T14:15:57;7.38;;;1.70;;
44169;SDS011;29836;52.286;9.576;2024-03-23T14:18:23;4.60;;;1.50;;
44169;SDS011;29836;52.286;9.576;2024-03-23T14:20:49;2.85;;;1.08;;
44169;SDS011;29836;52.286;9.576;2024-03-23T14:23:15;2.25;;;0.80;;
44169;SDS011;29836;52.286;9.576;2024-03-23T14:25:42;4.05;;;1.50;;
44169;SDS011;29836;52.286;9.576;2024-03-23T14:28:07;6.20;;;1.65;;
44169;SDS011;29836;52.286;9.576;2024-03-23T14:30:39;2.15;;;0.70;;
44169;SDS011;29836;52.286;9.576;2024-03-23T14:33:08;1.75;;;0.50;;
44169;SDS011;29836;52.286;9.576;2024-03-23T14:35:33;2.88;;;0.65;;
44169;SDS011;29836;52.286;9.576;2024-03-23T14:37:59;3.05;;;0.60;;
44169;SDS011;29836;52.286;9.576;2024-03-23T14:40:24;3.65;;;1.25;;
44169;SDS011;29836;52.286;9.576;2024-03-23T14:42:53;1.60;;;0.77;;
44169;SDS011;29836;52.286;9.576;2024-03-23T14:45:20;0.85;;;0.60;;
44169;SDS011;29836;52.286;9.576;2024-03-23T14:47:46;1.67;;;1.00;;
44169;SDS011;29836;52.286;9.576;2024-03-23T14:50:12;2.45;;;0.88;;
44169;SDS011;29836;52.286;9.576;2024-03-23T14:52:40;3.25;;;0.73;;
44169;SDS011;29836;52.286;9.576;2024-03-23T14:55:07;2.30;;;0.98;;
44169;SDS011;29836;52.286;9.576;2024-03-23T14:57:33;1.90;;;0.88;;
44169;SDS011;29836;52.286;9.576;2024-03-23T14:59:59;4.40;;;1.10;;
44169;SDS011;29836;52.286;9.576;2024-03-23T15:02:25;7.25;;;1.17;;
44169;SDS011;29836;52.286;9.576;2024-03-23T15:04:52;3.35;;;0.90;;
44169;SDS011;29836;52.286;9.576;2024-03-23T15:07:19;2.17;;;1.00;;
44169;SDS011;29836;52.286;9.576;2024-03-23T15:09:44;3.38;;;1.20;;
44169;SDS011;29836;52.286;9.576;2024-03-23T15:12:10;4.03;;;1.30;;
44169;SDS011;29836;52.286;9.576;2024-03-23T15:14:35;3.85;;;1.10;;
44169;SDS011;29836;52.286;9.576;2024-03-23T15:17:01;3.53;;;1.48;;
44169;SDS011;29836;52.286;9.576;2024-03-23T15:19:32;1.23;;;0.82;;
44169;SDS011;29836;52.286;9.576;2024-03-23T15:21:57;4.40;;;1.23;;
44169;SDS011;29836;52.286;9.576;2024-03-23T15:24:23;1.95;;;1.00;;
44169;SDS011;29836;52.286;9.576;2024-03-23T15:26:49;2.47;;;1.00;;
44169;SDS011;29836;52.286;9.576;2024-03-23T15:29:17;1.65;;;0.82;;
44169;SDS011;29836;52.286;9.576;2024-03-23T15:31:43;2.35;;;1.00;;
44169;SDS011;29836;52.286;9.576;2024-03-23T15:34:08;4.03;;;1.23;;
44169;SDS011;29836;52.286;9.576;2024-03-23T15:36:37;2.00;;;1.08;;
44169;SDS011;29836;52.286;9.576;2024-03-23T15:39:05;6.60;;;1.42;;
44169;SDS011;29836;52.286;9.576;2024-03-23T15:41:31;2.05;;;0.80;;
44169;SDS011;29836;52.286;9.576;2024-03-23T15:43:59;3.38;;;0.80;;